sensor_id;sensor_type;location;lat;lon;timestamp;pressure;altitude;pressure_sealevel;temperature;humidity
64352;BME280;50680;52.626;-8.668;2023-12-20T11:20:41;102533.78;;;10.18;100.00
64352;BME280;50680;52.626;-8.668;2023-12-20T11:23:09;102507.41;;;10.82;100.00
64352;BME280;50680;52.626;-8.668;2023-12-20T11:25:52;102500.34;;;11.38;100.00
64352;BME280;50680;52.626;-8.668;2023-12-20T11:28:23;102486.84;;;11.74;100.00
64352;BME280;50680;52.626;-8.668;2023-12-20T11:30:55;102462.69;;;11.88;100.00
64352;BME280;50680;52.626;-8.668;2023-12-20T11:33:24;102436.03;;;11.98;100.00
64352;BME280;50680;52.626;-8.668;2023-12-20T11:35:56;102402.59;;;12.02;100.00
64352;BME280;50680;52.626;-8.668;2023-12-20T11:38:24;102401.16;;;12.17;100.00
64352;BME280;50680;52.626;-8.668;2023-12-20T11:40:53;102394.66;;;12.26;100.00
64352;BME280;50680;52.626;-8.668;2023-12-20T11:46:06;102378.50;;;12.13;100.00
64352;BME280;50680;52.626;-8.668;2023-12-20T11:48:35;102358.69;;;12.26;100.00
64352;BME280;50680;52.626;-8.668;2023-12-20T11:51:02;102373.75;;;12.22;100.00
64352;BME280;50680;52.626;-8.668;2023-12-20T11:53:35;102357.19;;;12.43;100.00
64352;BME280;50680;52.626;-8.668;2023-12-20T11:56:05;102362.59;;;12.16;100.00
64352;BME280;50680;52.626;-8.668;2023-12-20T11:58:33;102349.97;;;12.26;100.00
64352;BME280;50680;52.626;-8.668;2023-12-20T12:01:00;102353.06;;;12.35;100.00
64352;BME280;50680;52.626;-8.668;2023-12-20T12:03:29;102337.66;;;12.26;100.00
64352;BME280;50680;52.626;-8.668;2023-12-20T12:05:57;102339.91;;;12.35;100.00
64352;BME280;50680;52.626;-8.668;2023-12-20T12:08:25;102324.44;;;12.28;100.00
64352;BME280;50680;52.626;-8.668;2023-12-20T12:10:53;102306.66;;;12.34;100.00
64352;BME280;50680;52.626;-8.668;2023-12-20T12:13:27;102302.09;;;12.38;100.00
64352;BME280;50680;52.626;-8.668;2023-12-20T12:16:01;102305.47;;;12.41;100.00
64352;BME280;50680;52.626;-8.668;2023-12-20T12:18:34;102314.94;;;12.46;100.00
64352;BME280;50680;52.626;-8.668;2023-12-20T12:21:09;102316.00;;;12.41;100.00
64352;BME280;50680;52.626;-8.668;2023-12-20T12:23:48;102305.59;;;12.38;100.00
64352;BME280;50680;52.626;-8.668;2023-12-20T12:26:15;102306.66;;;12.55;100.00
64352;BME280;50680;52.626;-8.668;2023-12-20T12:28:45;102320.50;;;12.60;100.00
64352;BME280;50680;52.626;-8.668;2023-12-20T12:31:15;102300.59;;;12.73;100.00
64352;BME280;50680;52.626;-8.668;2023-12-20T12:33:45;102296.47;;;12.68;100.00
64352;BME280;50680;52.626;-8.668;2023-12-20T12:36:12;102289.34;;;12.70;100.00
64352;BME280;50680;52.626;-8.668;2023-12-20T12:38:42;102282.28;;;12.72;100.00
64352;BME280;50680;52.626;-8.668;2023-12-20T12:41:09;102275.22;;;12.72;100.00
64352;BME280;50680;52.626;-8.668;2023-12-20T12:43:37;102275.81;;;12.79;100.00
64352;BME280;50680;52.626;-8.668;2023-12-20T12:46:04;102271.59;;;12.75;100.00
64352;BME280;50680;52.626;-8.668;2023-12-20T12:48:31;102266.81;;;12.64;100.00
64352;BME280;50680;52.626;-8.668;2023-12-20T12:50:58;102280.72;;;12.87;100.00
64352;BME280;50680;52.626;-8.668;2023-12-20T12:53:26;102276.78;;;12.76;100.00
64352;BME280;50680;52.626;-8.668;2023-12-20T12:55:53;102279.28;;;12.79;100.00
64352;BME280;50680;52.626;-8.668;2023-12-20T12:58:21;102263.50;;;12.79;100.00
64352;BME280;50680;52.626;-8.668;2023-12-20T13:00:49;102262.59;;;12.81;100.00
64352;BME280;50680;52.626;-8.668;2023-12-20T13:03:16;102251.25;;;12.78;100.00
64352;BME280;50680;52.626;-8.668;2023-12-20T13:05:42;102253.75;;;12.82;100.00
64352;BME280;50680;52.626;-8.668;2023-12-20T13:08:13;102242.44;;;12.79;100.00
64352;BME280;50680;52.626;-8.668;2023-12-20T13:10:40;102245.06;;;12.79;100.00
64352;BME280;50680;52.626;-8.668;2023-12-20T13:13:07;102237.06;;;12.83;100.00
64352;BME280;50680;52.626;-8.668;2023-12-20T13:15:34;102241.19;;;12.88;100.00
64352;BME280;50680;52.626;-8.668;2023-12-20T13:18:01;102236.75;;;12.89;100.00
64352;BME280;50680;52.626;-8.668;2023-12-20T13:20:28;102238.22;;;12.96;100.00
64352;BME280;50680;52.626;-8.668;2023-12-20T13:22:55;102232.78;;;12.99;100.00
64352;BME280;50680;52.626;-8.668;2023-12-20T13:25:22;102214.53;;;12.96;100.00
64352;BME280;50680;52.626;-8.668;2023-12-20T13:27:49;102221.25;;;12.83;100.00
64352;BME280;50680;52.626;-8.668;2023-12-20T13:30:16;102204.63;;;12.82;100.00
64352;BME280;50680;52.626;-8.668;2023-12-20T13:32:44;102197.34;;;12.87;100.00
64352;BME280;50680;52.626;-8.668;2023-12-20T13:35:11;102202.41;;;12.92;100.00
64352;BME280;50680;52.626;-8.668;2023-12-20T13:37:38;102184.56;;;12.98;100.00
64352;BME280;50680;52.626;-8.668;2023-12-20T13:40:06;102183.84;;;12.95;100.00
64352;BME280;50680;52.626;-8.668;2023-12-20T13:42:33;102186.75;;;13.08;100.00
64352;BME280;50680;52.626;-8.668;2023-12-20T13:45:01;102183.00;;;13.13;100.00
64352;BME280;50680;52.626;-8.668;2023-12-20T13:47:28;102183.00;;;13.13;100.00
64352;BME280;50680;52.626;-8.668;2023-12-20T13:49:55;102170.94;;;13.27;100.00
64352;BME280;50680;52.626;-8.668;2023-12-20T13:52:23;102175.84;;;13.36;100.00
64352;BME280;50680;52.626;-8.668;2023-12-20T13:54:49;102165.53;;;13.30;100.00
64352;BME280;50680;52.626;-8.668;2023-12-20T13:57:16;102159.56;;;13.07;100.00
64352;BME280;50680;52.626;-8.668;2023-12-20T13:59:47;102166.63;;;13.26;100.00
64352;BME280;50680;52.626;-8.668;2023-12-20T14:02:14;102153.88;;;13.16;100.00
64352;BME280;50680;52.626;-8.668;2023-12-20T14:04:43;102165.91;;;13.03;100.00
64352;BME280;50680;52.626;-8.668;2023-12-20T14:07:10;102158.72;;;13.07;100.00
64352;BME280;50680;52.626;-8.668;2023-12-20T14:09:39;102144.84;;;13.03;100.00
64352;BME280;50680;52.626;-8.668;2023-12-20T14:12:13;102144.28;;;13.15;100.00
64352;BME280;50680;52.626;-8.668;2023-12-20T14:14:40;102141.84;;;13.11;100.00
64352;BME280;50680;52.626;-8.668;2023-12-20T14:17:07;102120.75;;;13.30;100.00
64352;BME280;50680;52.626;-8.668;2023-12-20T14:19:33;102128.97;;;13.24;100.00
64352;BME280;50680;52.626;-8.668;2023-12-20T14:22:00;102137.00;;;13.21;100.00
64352;BME280;50680;52.626;-8.668;2023-12-20T14:24:28;102131.44;;;13.27;100.00
64352;BME280;50680;52.626;-8.668;2023-12-20T14:27:12;102132.03;;;13.33;100.00
64352;BME280;50680;52.626;-8.668;2023-12-20T14:29:40;102127.88;;;13.28;100.00
64352;BME280;50680;52.626;-8.668;2023-12-20T14:32:07;102120.19;;;13.23;100.00
64352;BME280;50680;52.626;-8.668;2023-12-20T14:34:34;102121.22;;;13.21;100.00
64352;BME280;50680;52.626;-8.668;2023-12-20T14:37:01;102116.22;;;13.14;100.00
64352;BME280;50680;52.626;-8.668;2023-12-20T14:39:28;102122.38;;;13.15;100.00
64352;BME280;50680;52.626;-8.668;2023-12-20T14:41:55;102118.09;;;13.12;100.00
64352;BME280;50680;52.626;-8.668;2023-12-20T14:44:22;102131.59;;;13.24;100.00
64352;BME280;50680;52.626;-8.668;2023-12-20T14:46:49;102120.50;;;13.36;100.00
64352;BME280;50680;52.626;-8.668;2023-12-20T14:49:16;102118.03;;;13.50;100.00
64352;BME280;50680;52.626;-8.668;2023-12-20T14:51:44;102118.94;;;13.32;100.00
64352;BME280;50680;52.626;-8.668;2023-12-20T14:54:11;102136.44;;;13.33;100.00
64352;BME280;50680;52.626;-8.668;2023-12-20T14:56:37;102130.72;;;13.23;100.00
64352;BME280;50680;52.626;-8.668;2023-12-20T14:59:04;102134.59;;;13.35;100.00
64352;BME280;50680;52.626;-8.668;2023-12-20T15:01:31;102128.34;;;13.19;100.00
64352;BME280;50680;52.626;-8.668;2023-12-20T15:03:58;102133.75;;;13.15;100.00
64352;BME280;50680;52.626;-8.668;2023-12-20T15:06:25;102131.03;;;13.17;100.00
64352;BME280;50680;52.626;-8.668;2023-12-20T15:08:53;102132.91;;;13.15;100.00
64352;BME280;50680;52.626;-8.668;2023-12-20T15:11:19;102133.75;;;13.15;100.00
64352;BME280;50680;52.626;-8.668;2023-12-20T15:13:46;102136.72;;;13.08;100.00
64352;BME280;50680;52.626;-8.668;2023-12-20T15:16:24;102136.78;;;13.06;100.00
64352;BME280;50680;52.626;-8.668;2023-12-20T15:18:52;102128.13;;;13.04;100.00
64352;BME280;50680;52.626;-8.668;2023-12-20T15:21:21;102125.28;;;13.09;100.00
64352;BME280;50680;52.626;-8.668;2023-12-20T15:23:56;102127.19;;;13.05;100.00
64352;BME280;50680;52.626;-8.668;2023-12-20T15:26:33;102134.59;;;12.97;100.00
64352;BME280;50680;52.626;-8.668;2023-12-20T15:29:00;102135.78;;;13.28;100.00
64352;BME280;50680;52.626;-8.668;2023-12-20T15:31:28;102132.34;;;13.08;100.00
64352;BME280;50680;52.626;-8.668;2023-12-20T15:33:54;102136.16;;;13.01;100.00
64352;BME280;50680;52.626;-8.668;2023-12-20T15:36:22;102129.34;;;12.97;100.00
64352;BME280;50680;52.626;-8.668;2023-12-20T15:38:49;102133.75;;;13.15;100.00
64352;BME280;50680;52.626;-8.668;2023-12-20T15:41:20;102133.81;;;12.95;100.00
64352;BME280;50680;52.626;-8.668;2023-12-20T15:43:47;102144.84;;;13.03;100.00
64352;BME280;50680;52.626;-8.668;2023-12-20T15:46:14;102149.97;;;13.06;100.00
64352;BME280;50680;52.626;-8.668;2023-12-20T15:48:41;102140.31;;;13.07;100.00
64352;BME280;50680;52.626;-8.668;2023-12-20T15:51:09;102145.63;;;13.05;100.00
64352;BME280;50680;52.626;-8.668;2023-12-20T15:53:36;102150.59;;;13.11;100.00
64352;BME280;50680;52.626;-8.668;2023-12-20T15:56:04;102147.69;;;13.17;100.00
64352;BME280;50680;52.626;-8.668;2023-12-20T15:58:34;102140.56;;;13.20;100.00
64352;BME280;50680;52.626;-8.668;2023-12-20T16:01:16;102146.41;;;13.07;100.00
64352;BME280;50680;52.626;-8.668;2023-12-20T16:03:55;102143.56;;;12.93;100.00
64352;BME280;50680;52.626;-8.668;2023-12-20T16:06:25;102128.06;;;12.87;100.00
64352;BME280;50680;52.626;-8.668;2023-12-20T16:08:53;102130.47;;;12.91;100.00
64352;BME280;50680;52.626;-8.668;2023-12-20T16:11:20;102132.75;;;12.99;100.00
64352;BME280;50680;52.626;-8.668;2023-12-20T16:13:47;102139.09;;;12.95;100.00
64352;BME280;50680;52.626;-8.668;2023-12-20T16:16:14;102131.06;;;12.98;100.00
64352;BME280;50680;52.626;-8.668;2023-12-20T16:18:41;102132.69;;;13.01;100.00
64352;BME280;50680;52.626;-8.668;2023-12-20T16:21:08;102113.69;;;12.94;100.00
64352;BME280;50680;52.626;-8.668;2023-12-20T16:23:35;102125.50;;;12.85;100.00
64352;BME280;50680;52.626;-8.668;2023-12-20T16:26:02;102125.66;;;12.82;100.00
64352;BME280;50680;52.626;-8.668;2023-12-20T16:28:29;102115.13;;;12.82;100.00
64352;BME280;50680;52.626;-8.668;2023-12-20T16:30:56;102128.56;;;12.95;100.00
64352;BME280;50680;52.626;-8.668;2023-12-20T16:33:23;102124.78;;;13.01;100.00
64352;BME280;50680;52.626;-8.668;2023-12-20T16:35:50;102115.53;;;13.11;100.00
64352;BME280;50680;52.626;-8.668;2023-12-20T16:38:17;102126.19;;;13.08;100.00
64352;BME280;50680;52.626;-8.668;2023-12-20T16:40:44;102113.09;;;13.06;100.00
64352;BME280;50680;52.626;-8.668;2023-12-20T16:43:11;102105.28;;;13.05;100.00
64352;BME280;50680;52.626;-8.668;2023-12-20T16:45:38;102105.69;;;13.14;100.00
64352;BME280;50680;52.626;-8.668;2023-12-20T16:48:05;102110.47;;;13.06;100.00
64352;BME280;50680;52.626;-8.668;2023-12-20T16:50:32;102113.03;;;13.08;100.00
64352;BME280;50680;52.626;-8.668;2023-12-20T16:52:59;102113.25;;;13.03;100.00
64352;BME280;50680;52.626;-8.668;2023-12-20T16:55:26;102097.88;;;12.94;100.00
64352;BME280;50680;52.626;-8.668;2023-12-20T16:57:53;102092.84;;;12.89;100.00
64352;BME280;50680;52.626;-8.668;2023-12-20T17:00:20;102079.25;;;12.98;100.00
64352;BME280;50680;52.626;-8.668;2023-12-20T17:02:49;102073.75;;;13.03;100.00
64352;BME280;50680;52.626;-8.668;2023-12-20T17:05:17;102090.66;;;13.16;100.00
64352;BME280;50680;52.626;-8.668;2023-12-20T17:07:45;102089.13;;;13.12;100.00
64352;BME280;50680;52.626;-8.668;2023-12-20T17:10:13;102093.41;;;13.15;100.00
64352;BME280;50680;52.626;-8.668;2023-12-20T17:12:39;102102.97;;;13.16;100.00
64352;BME280;50680;52.626;-8.668;2023-12-20T17:15:07;102116.84;;;13.20;100.00
64352;BME280;50680;52.626;-8.668;2023-12-20T17:17:34;102106.31;;;13.20;100.00
64352;BME280;50680;52.626;-8.668;2023-12-20T17:20:01;102095.66;;;13.23;100.00
64352;BME280;50680;52.626;-8.668;2023-12-20T17:22:28;102105.25;;;13.24;100.00
64352;BME280;50680;52.626;-8.668;2023-12-20T17:24:55;102109.59;;;13.25;100.00
64352;BME280;50680;52.626;-8.668;2023-12-20T17:27:22;102109.09;;;13.16;100.00
64352;BME280;50680;52.626;-8.668;2023-12-20T17:29:49;102098.41;;;13.20;100.00
64352;BME280;50680;52.626;-8.668;2023-12-20T17:32:16;102110.69;;;13.21;100.00
64352;BME280;50680;52.626;-8.668;2023-12-20T17:34:43;102112.53;;;13.19;100.00
64352;BME280;50680;52.626;-8.668;2023-12-20T17:37:10;102120.25;;;13.22;100.00
64352;BME280;50680;52.626;-8.668;2023-12-20T17:39:37;102122.19;;;13.18;100.00
64352;BME280;50680;52.626;-8.668;2023-12-20T17:42:28;102123.78;;;13.22;100.00
64352;BME280;50680;52.626;-8.668;2023-12-20T17:45:43;102139.00;;;13.34;100.00
64352;BME280;50680;52.626;-8.668;2023-12-20T17:48:10;102131.25;;;13.31;100.00
64352;BME280;50680;52.626;-8.668;2023-12-20T17:50:37;102130.09;;;13.37;100.00
64352;BME280;50680;52.626;-8.668;2023-12-20T17:53:04;102135.00;;;13.45;100.00
64352;BME280;50680;52.626;-8.668;2023-12-20T17:55:31;102128.72;;;13.47;100.00
64352;BME280;50680;52.626;-8.668;2023-12-20T17:57:59;102137.66;;;13.45;100.00
64352;BME280;50680;52.626;-8.668;2023-12-20T18:00:28;102146.84;;;13.36;100.00
64352;BME280;50680;52.626;-8.668;2023-12-20T18:02:57;102134.78;;;13.30;100.00
64352;BME280;50680;52.626;-8.668;2023-12-20T18:05:24;102137.84;;;13.21;100.00
64352;BME280;50680;52.626;-8.668;2023-12-20T18:07:51;102137.41;;;13.30;100.00
64352;BME280;50680;52.626;-8.668;2023-12-20T18:10:19;102132.72;;;13.37;100.00
64352;BME280;50680;52.626;-8.668;2023-12-20T18:12:47;102124.06;;;13.35;100.00
64352;BME280;50680;52.626;-8.668;2023-12-20T18:15:14;102125.47;;;13.23;100.00
64352;BME280;50680;52.626;-8.668;2023-12-20T18:17:41;102113.00;;;13.27;100.00
64352;BME280;50680;52.626;-8.668;2023-12-20T18:20:09;102119.06;;;13.48;100.00
64352;BME280;50680;52.626;-8.668;2023-12-20T18:22:36;102112.75;;;13.33;100.00
64352;BME280;50680;52.626;-8.668;2023-12-20T18:25:08;102116.66;;;13.24;100.00
64352;BME280;50680;52.626;-8.668;2023-12-20T18:27:35;102119.69;;;13.34;100.00
64352;BME280;50680;52.626;-8.668;2023-12-20T18:30:02;102119.75;;;13.51;100.00
64352;BME280;50680;52.626;-8.668;2023-12-20T18:32:42;102126.47;;;13.40;100.00
64352;BME280;50680;52.626;-8.668;2023-12-20T18:35:09;102122.75;;;13.44;100.00
64352;BME280;50680;52.626;-8.668;2023-12-20T18:37:37;102127.19;;;13.43;100.00
64352;BME280;50680;52.626;-8.668;2023-12-20T18:40:07;102120.97;;;13.44;100.00
64352;BME280;50680;52.626;-8.668;2023-12-20T18:42:34;102107.88;;;13.43;100.00
64352;BME280;50680;52.626;-8.668;2023-12-20T18:45:01;102097.25;;;13.44;100.00
64352;BME280;50680;52.626;-8.668;2023-12-20T18:47:30;102088.44;;;13.45;100.00
64352;BME280;50680;52.626;-8.668;2023-12-20T18:49:58;102119.34;;;13.23;100.00
64352;BME280;50680;52.626;-8.668;2023-12-20T18:52:28;102110.38;;;13.27;100.00
64352;BME280;50680;52.626;-8.668;2023-12-20T18:54:55;102108.53;;;13.29;100.00
64352;BME280;50680;52.626;-8.668;2023-12-20T18:57:22;102105.97;;;13.27;100.00
64352;BME280;50680;52.626;-8.668;2023-12-20T18:59:49;102098.91;;;13.28;100.00
64352;BME280;50680;52.626;-8.668;2023-12-20T19:02:16;102106.19;;;13.23;100.00
64352;BME280;50680;52.626;-8.668;2023-12-20T19:04:43;102110.22;;;13.30;100.00
64352;BME280;50680;52.626;-8.668;2023-12-20T19:07:12;102114.53;;;13.32;100.00
64352;BME280;50680;52.626;-8.668;2023-12-20T19:09:39;102124.19;;;13.32;100.00
64352;BME280;50680;52.626;-8.668;2023-12-20T19:12:06;102110.03;;;13.34;100.00
64352;BME280;50680;52.626;-8.668;2023-12-20T19:14:32;102113.94;;;13.26;100.00
64352;BME280;50680;52.626;-8.668;2023-12-20T19:17:00;102119.06;;;13.29;100.00
64352;BME280;50680;52.626;-8.668;2023-12-20T19:19:28;102109.59;;;13.25;100.00
64352;BME280;50680;52.626;-8.668;2023-12-20T19:21:55;102114.34;;;13.16;100.00
64352;BME280;50680;52.626;-8.668;2023-12-20T19:24:22;102116.09;;;13.17;100.00
64352;BME280;50680;52.626;-8.668;2023-12-20T19:26:49;102113.44;;;13.17;100.00
64352;BME280;50680;52.626;-8.668;2023-12-20T19:29:16;102128.34;;;13.19;100.00
64352;BME280;50680;52.626;-8.668;2023-12-20T19:31:43;102122.06;;;13.21;100.00
64352;BME280;50680;52.626;-8.668;2023-12-20T19:34:10;102123.47;;;13.28;100.00
64352;BME280;50680;52.626;-8.668;2023-12-20T19:36:37;102133.50;;;13.39;100.00
64352;BME280;50680;52.626;-8.668;2023-12-20T19:39:04;102122.06;;;13.40;100.00
64352;BME280;50680;52.626;-8.668;2023-12-20T19:41:31;102109.78;;;13.39;100.00
64352;BME280;50680;52.626;-8.668;2023-12-20T19:43:58;102123.25;;;13.52;100.00
64352;BME280;50680;52.626;-8.668;2023-12-20T19:46:26;102121.00;;;13.62;100.00
64352;BME280;50680;52.626;-8.668;2023-12-20T19:48:53;102116.72;;;13.59;100.00
64352;BME280;50680;52.626;-8.668;2023-12-20T19:51:20;102122.41;;;13.51;100.00
64352;BME280;50680;52.626;-8.668;2023-12-20T19:53:47;102118.97;;;13.49;100.00
64352;BME280;50680;52.626;-8.668;2023-12-20T19:56:14;102111.06;;;13.49;100.00
64352;BME280;50680;52.626;-8.668;2023-12-20T19:58:41;102106.94;;;13.44;100.00
64352;BME280;50680;52.626;-8.668;2023-12-20T20:01:08;102114.91;;;13.42;100.00
64352;BME280;50680;52.626;-8.668;2023-12-20T20:03:35;102106.09;;;13.43;100.00
64352;BME280;50680;52.626;-8.668;2023-12-20T20:06:02;102122.22;;;13.54;100.00
64352;BME280;50680;52.626;-8.668;2023-12-20T20:08:29;102105.63;;;13.52;100.00
64352;BME280;50680;52.626;-8.668;2023-12-20T20:10:56;102091.53;;;13.36;100.00
64352;BME280;50680;52.626;-8.668;2023-12-20T20:13:23;102105.41;;;13.40;100.00
64352;BME280;50680;52.626;-8.668;2023-12-20T20:15:49;102105.03;;;13.28;100.00
64352;BME280;50680;52.626;-8.668;2023-12-20T20:18:17;102113.53;;;13.35;100.00
64352;BME280;50680;52.626;-8.668;2023-12-20T20:20:46;102109.97;;;13.36;100.00
64352;BME280;50680;52.626;-8.668;2023-12-20T20:23:13;102117.88;;;13.36;100.00
64352;BME280;50680;52.626;-8.668;2023-12-20T20:25:40;102119.28;;;13.43;100.00
64352;BME280;50680;52.626;-8.668;2023-12-20T20:28:07;102125.38;;;13.44;100.00
64352;BME280;50680;52.626;-8.668;2023-12-20T20:30:34;102133.94;;;13.30;100.00
64352;BME280;50680;52.626;-8.668;2023-12-20T20:33:01;102106.53;;;13.34;100.00
64352;BME280;50680;52.626;-8.668;2023-12-20T20:35:29;102119.41;;;13.40;100.00
64352;BME280;50680;52.626;-8.668;2023-12-20T20:37:56;102118.63;;;13.38;100.00
64352;BME280;50680;52.626;-8.668;2023-12-20T20:40:23;102109.16;;;13.34;100.00
64352;BME280;50680;52.626;-8.668;2023-12-20T20:42:50;102107.00;;;13.42;100.00
64352;BME280;50680;52.626;-8.668;2023-12-20T20:45:17;102102.97;;;13.35;100.00
64352;BME280;50680;52.626;-8.668;2023-12-20T20:47:44;102109.09;;;13.35;100.00
64352;BME280;50680;52.626;-8.668;2023-12-20T20:50:12;102091.66;;;13.33;100.00
64352;BME280;50680;52.626;-8.668;2023-12-20T20:52:39;102090.44;;;13.40;100.00
64352;BME280;50680;52.626;-8.668;2023-12-20T20:55:06;102085.09;;;13.42;100.00
64352;BME280;50680;52.626;-8.668;2023-12-20T20:57:34;102090.44;;;13.40;100.00
64352;BME280;50680;52.626;-8.668;2023-12-20T21:00:00;102091.97;;;13.44;100.00
64352;BME280;50680;52.626;-8.668;2023-12-20T21:02:27;102066.09;;;13.52;100.00
64352;BME280;50680;52.626;-8.668;2023-12-20T21:04:55;102062.84;;;13.47;100.00
64352;BME280;50680;52.626;-8.668;2023-12-20T21:07:24;102057.84;;;13.43;100.00
64352;BME280;50680;52.626;-8.668;2023-12-20T21:09:53;102058.53;;;13.46;100.00
64352;BME280;50680;52.626;-8.668;2023-12-20T21:12:26;102065.19;;;13.53;100.00
64352;BME280;50680;52.626;-8.668;2023-12-20T21:14:54;102069.75;;;13.50;100.00
64352;BME280;50680;52.626;-8.668;2023-12-20T21:17:23;102085.31;;;13.54;100.00
64352;BME280;50680;52.626;-8.668;2023-12-20T21:19:50;102071.31;;;13.54;100.00
64352;BME280;50680;52.626;-8.668;2023-12-20T21:22:17;102076.56;;;13.54;100.00
64352;BME280;50680;52.626;-8.668;2023-12-20T21:24:45;102077.41;;;13.54;100.00
64352;BME280;50680;52.626;-8.668;2023-12-20T21:27:11;102072.47;;;13.66;100.00
64352;BME280;50680;52.626;-8.668;2023-12-20T21:29:38;102065.19;;;13.71;100.00
64352;BME280;50680;52.626;-8.668;2023-12-20T21:32:06;102067.97;;;13.68;100.00
64352;BME280;50680;52.626;-8.668;2023-12-20T21:34:32;102067.06;;;13.69;100.00
64352;BME280;50680;52.626;-8.668;2023-12-20T21:37:00;102058.97;;;13.72;100.00
64352;BME280;50680;52.626;-8.668;2023-12-20T21:39:26;102051.44;;;13.82;100.00
64352;BME280;50680;52.626;-8.668;2023-12-20T21:41:55;102051.38;;;13.83;100.00
64352;BME280;50680;52.626;-8.668;2023-12-20T21:44:22;102048.13;;;13.78;100.00
64352;BME280;50680;52.626;-8.668;2023-12-20T21:46:49;102056.78;;;13.80;100.00
64352;BME280;50680;52.626;-8.668;2023-12-20T21:49:16;102041.06;;;13.79;100.00
64352;BME280;50680;52.626;-8.668;2023-12-20T21:51:43;102027.53;;;13.69;100.00
64352;BME280;50680;52.626;-8.668;2023-12-20T21:54:10;102037.88;;;13.72;100.00
64352;BME280;50680;52.626;-8.668;2023-12-20T21:56:41;102011.94;;;13.64;100.00
64352;BME280;50680;52.626;-8.668;2023-12-20T21:59:08;102035.78;;;13.79;100.00
64352;BME280;50680;52.626;-8.668;2023-12-20T22:01:35;102044.19;;;13.69;100.00
64352;BME280;50680;52.626;-8.668;2023-12-20T22:04:07;102037.19;;;13.68;100.00
64352;BME280;50680;52.626;-8.668;2023-12-20T22:06:35;102035.25;;;13.54;100.00
64352;BME280;50680;52.626;-8.668;2023-12-20T22:09:02;102028.50;;;13.66;100.00
64352;BME280;50680;52.626;-8.668;2023-12-20T22:11:29;102016.78;;;13.72;100.00
64352;BME280;50680;52.626;-8.668;2023-12-20T22:13:56;102021.00;;;13.76;100.00
64352;BME280;50680;52.626;-8.668;2023-12-20T22:16:23;102022.06;;;13.72;100.00
64352;BME280;50680;52.626;-8.668;2023-12-20T22:18:50;102005.06;;;13.62;100.00
64352;BME280;50680;52.626;-8.668;2023-12-20T22:21:18;101992.94;;;13.58;100.00
64352;BME280;50680;52.626;-8.668;2023-12-20T22:23:45;102001.25;;;13.50;100.00
64352;BME280;50680;52.626;-8.668;2023-12-20T22:26:12;102004.66;;;13.52;100.00
64352;BME280;50680;52.626;-8.668;2023-12-20T22:28:39;102012.63;;;13.50;100.00
64352;BME280;50680;52.626;-8.668;2023-12-20T22:31:07;102020.69;;;13.47;100.00
64352;BME280;50680;52.626;-8.668;2023-12-20T22:33:34;102025.59;;;13.55;100.00
64352;BME280;50680;52.626;-8.668;2023-12-20T22:36:01;102016.81;;;13.54;100.00
64352;BME280;50680;52.626;-8.668;2023-12-20T22:38:28;102002.41;;;13.62;100.00
64352;BME280;50680;52.626;-8.668;2023-12-20T22:40:57;101996.03;;;13.66;100.00
64352;BME280;50680;52.626;-8.668;2023-12-20T22:43:24;101992.63;;;13.64;100.00
64352;BME280;50680;52.626;-8.668;2023-12-20T22:45:51;101987.59;;;13.59;100.00
64352;BME280;50680;52.626;-8.668;2023-12-20T22:48:19;101984.28;;;13.56;100.00
64352;BME280;50680;52.626;-8.668;2023-12-20T22:50:46;101994.81;;;13.56;100.00
64352;BME280;50680;52.626;-8.668;2023-12-20T22:53:13;101993.78;;;13.58;100.00
64352;BME280;50680;52.626;-8.668;2023-12-20T22:55:40;102001.53;;;13.61;100.00
64352;BME280;50680;52.626;-8.668;2023-12-20T22:58:08;102028.16;;;13.57;100.00
64352;BME280;50680;52.626;-8.668;2023-12-20T23:00:34;102018.38;;;13.59;100.00
64352;BME280;50680;52.626;-8.668;2023-12-20T23:03:02;102031.16;;;13.49;100.00
64352;BME280;50680;52.626;-8.668;2023-12-20T23:05:29;102039.91;;;13.49;100.00
64352;BME280;50680;52.626;-8.668;2023-12-20T23:07:56;102035.25;;;13.54;100.00
64352;BME280;50680;52.626;-8.668;2023-12-20T23:10:23;102042.53;;;13.49;100.00
64352;BME280;50680;52.626;-8.668;2023-12-20T23:12:56;102049.69;;;13.47;100.00
64352;BME280;50680;52.626;-8.668;2023-12-20T23:15:24;102023.25;;;13.49;100.00
64352;BME280;50680;52.626;-8.668;2023-12-20T23:17:50;102037.75;;;13.58;100.00
64352;BME280;50680;52.626;-8.668;2023-12-20T23:20:19;102034.19;;;13.59;100.00
64352;BME280;50680;52.626;-8.668;2023-12-20T23:22:46;102022.88;;;13.57;100.00
64352;BME280;50680;52.626;-8.668;2023-12-20T23:25:14;102024.19;;;13.65;100.00
64352;BME280;50680;52.626;-8.668;2023-12-20T23:27:41;102022.16;;;13.53;100.00
64352;BME280;50680;52.626;-8.668;2023-12-20T23:30:10;102030.22;;;13.67;100.00
64352;BME280;50680;52.626;-8.668;2023-12-20T23:32:37;102020.88;;;13.62;100.00
64352;BME280;50680;52.626;-8.668;2023-12-20T23:35:04;102011.38;;;13.58;100.00
64352;BME280;50680;52.626;-8.668;2023-12-20T23:37:42;102005.34;;;13.56;100.00
64352;BME280;50680;52.626;-8.668;2023-12-20T23:40:13;102007.84;;;13.41;100.00
64352;BME280;50680;52.626;-8.668;2023-12-20T23:42:40;102008.91;;;13.54;100.00
64352;BME280;50680;52.626;-8.668;2023-12-20T23:45:07;102007.22;;;13.53;100.00
64352;BME280;50680;52.626;-8.668;2023-12-20T23:47:50;102000.38;;;13.49;100.00
64352;BME280;50680;52.626;-8.668;2023-12-20T23:50:20;101992.19;;;13.56;100.00
64352;BME280;50680;52.626;-8.668;2023-12-20T23:52:48;101991.41;;;13.53;100.00
64352;BME280;50680;52.626;-8.668;2023-12-20T23:55:17;102003.81;;;13.51;100.00
64352;BME280;50680;52.626;-8.668;2023-12-20T23:57:45;101991.72;;;13.47;100.00
